Time,TemperatureF,DewpointF,PressureIn,WindDirection,WindDirectionDegrees,WindSpeedMPH,WindSpeedGustMPH,Humidity,HourlyPrecipIn,Conditions,Clouds,dailyrainin,SoftwareType,DateUTC
2013-02-18 00:00:00,36.2,33.2,29.81,North,0,0.0,0.0,89,0.00,,,0.00,WUHU216HW,2013-02-18 08:00:00,
2013-02-18 00:05:00,36.4,33.4,29.80,North,0,0.0,0.0,89,0.00,,,0.00,WUHU216HW,2013-02-18 08:05:00,
2013-02-18 00:10:00,36.4,33.4,29.81,North,0,0.0,0.0,89,0.00,,,0.00,WUHU216HW,2013-02-18 08:10:00,
2013-02-18 00:15:00,36.5,33.6,29.80,North,0,0.0,0.0,89,0.00,,,0.00,WUHU216HW,2013-02-18 08:15:00,
2013-02-18 00:20:00,36.5,33.6,29.80,North,0,0.0,0.0,89,0.00,,,0.00,WUHU216HW,2013-02-18 08:20:00,
2013-02-18 00:25:00,36.7,33.8,29.80,North,0,0.0,0.0,89,0.00,,,0.00,WUHU216HW,2013-02-18 08:25:00,
2013-02-18 00:30:00,36.5,33.6,29.80,North,0,0.0,0.0,89,0.00,,,0.00,WUHU216HW,2013-02-18 08:30:00,
2013-02-18 00:35:00,36.4,33.1,29.79,North,0,0.0,0.0,88,0.00,,,0.00,WUHU216HW,2013-02-18 08:35:00,
2013-02-18 00:40:00,36.2,33.0,29.79,North,0,0.0,0.0,88,0.00,,,0.00,WUHU216HW,2013-02-18 08:40:00,
2013-02-18 00:45:00,36.0,33.0,29.79,North,0,0.0,0.0,89,0.00,,,0.00,WUHU216HW,2013-02-18 08:45:00,
2013-02-18 00:50:00,36.0,33.0,29.79,North,0,0.0,0.0,89,0.00,,,0.00,WUHU216HW,2013-02-18 08:50:00,
2013-02-18 00:55:00,35.6,32.7,29.79,North,0,0.0,0.0,89,0.00,,,0.00,WUHU216HW,2013-02-18 08:55:00,
2013-02-18 01:00:00,35.5,32.5,29.79,North,0,0.0,0.0,89,0.00,,,0.00,WUHU216HW,2013-02-18 09:00:00,
2013-02-18 01:05:00,35.3,32.3,29.79,North,0,0.0,0.0,89,0.00,,,0.00,WUHU216HW,2013-02-18 09:05:00,
2013-02-18 01:10:00,35.1,32.1,29.79,North,0,0.0,0.0,89,0.00,,,0.00,WUHU216HW,2013-02-18 09:10:00,
2013-02-18 01:15:00,34.9,32.0,29.78,North,0,0.0,0.0,89,0.00,,,0.00,WUHU216HW,2013-02-18 09:15:00,
2013-02-18 01:20:00,34.7,31.8,29.78,North,0,0.0,0.0,89,0.00,,,0.00,WUHU216HW,2013-02-18 09:20:00,
2013-02-18 01:25:00,34.6,31.6,29.78,North,0,0.0,0.0,89,0.00,,,0.00,WUHU216HW,2013-02-18 09:25:00,
2013-02-18 01:30:00,34.6,31.6,29.78,North,0,0.0,0.0,89,0.00,,,0.00,WUHU216HW,2013-02-18 09:30:00,
2013-02-18 01:35:00,34.4,31.4,29.78,North,0,0.0,0.0,89,0.00,,,0.00,WUHU216HW,2013-02-18 09:35:00,
2013-02-18 01:40:00,34.2,31.2,29.77,North,0,0.0,0.0,89,0.00,,,0.00,WUHU216HW,2013-02-18 09:40:00,
2013-02-18 01:45:00,34.2,31.2,29.77,North,0,0.0,0.0,89,0.00,,,0.00,WUHU216HW,2013-02-18 09:45:00,
2013-02-18 01:50:00,34.0,31.1,29.77,North,0,0.0,0.0,89,0.00,,,0.00,WUHU216HW,2013-02-18 09:50:00,
2013-02-18 01:55:00,34.0,31.1,29.78,North,0,0.0,0.0,89,0.00,,,0.00,WUHU216HW,2013-02-18 09:55:00,
2013-02-18 02:00:00,33.8,31.1,29.77,North,0,0.0,0.0,90,0.00,,,0.00,WUHU216HW,2013-02-18 10:00:00,
2013-02-18 02:05:00,33.8,31.1,29.77,North,0,0.0,0.0,90,0.00,,,0.00,WUHU216HW,2013-02-18 10:05:00,
2013-02-18 02:10:00,33.8,31.1,29.77,North,0,0.0,0.0,90,0.00,,,0.00,WUHU216HW,2013-02-18 10:10:00,
2013-02-18 02:15:00,33.8,31.4,29.77,North,0,0.0,0.0,91,0.00,,,0.00,WUHU216HW,2013-02-18 10:15:00,
2013-02-18 02:20:00,33.8,31.4,29.77,North,0,0.0,0.0,91,0.00,,,0.00,WUHU216HW,2013-02-18 10:20:00,
2013-02-18 02:25:00,33.8,31.4,29.77,North,0,0.0,0.0,91,0.00,,,0.00,WUHU216HW,2013-02-18 10:25:00,
2013-02-18 02:30:00,33.8,31.4,29.77,North,0,0.0,0.0,91,0.00,,,0.00,WUHU216HW,2013-02-18 10:30:00,
2013-02-18 02:35:00,33.8,31.4,29.77,North,0,0.0,0.0,91,0.00,,,0.00,WUHU216HW,2013-02-18 10:35:00,
2013-02-18 02:40:00,33.8,31.4,29.76,North,0,0.0,0.0,91,0.00,,,0.00,WUHU216HW,2013-02-18 10:40:00,
2013-02-18 02:45:00,33.8,31.4,29.76,North,0,0.0,0.0,91,0.00,,,0.00,WUHU216HW,2013-02-18 10:45:00,
2013-02-18 02:50:00,33.8,31.4,29.76,North,0,0.0,0.0,91,0.00,,,0.00,WUHU216HW,2013-02-18 10:50:00,
2013-02-18 02:55:00,33.8,31.4,29.76,North,0,0.0,0.0,91,0.00,,,0.00,WUHU216HW,2013-02-18 10:55:00,
2013-02-18 03:00:00,34.0,31.6,29.76,North,0,0.0,0.0,91,0.00,,,0.00,WUHU216HW,2013-02-18 11:00:00,
2013-02-18 03:05:00,34.0,31.6,29.76,North,0,0.0,0.0,91,0.00,,,0.00,WUHU216HW,2013-02-18 11:05:00,
2013-02-18 03:10:00,34.0,31.6,29.76,North,0,0.0,0.0,91,0.00,,,0.00,WUHU216HW,2013-02-18 11:10:00,
2013-02-18 03:15:00,34.0,31.6,29.75,North,0,0.0,0.0,91,0.00,,,0.00,WUHU216HW,2013-02-18 11:15:00,
2013-02-18 03:20:00,34.0,31.9,29.75,North,0,0.0,0.0,92,0.00,,,0.00,WUHU216HW,2013-02-18 11:20:00,
2013-02-18 03:26:00,34.0,31.9,29.75,North,0,0.0,0.0,92,0.00,,,0.00,WUHU216HW,2013-02-18 11:26:00,
2013-02-18 03:31:00,34.0,31.9,29.74,North,0,0.0,0.0,92,0.00,,,0.00,WUHU216HW,2013-02-18 11:31:00,
2013-02-18 03:36:00,34.0,31.9,29.74,North,0,0.0,0.0,92,0.00,,,0.00,WUHU216HW,2013-02-18 11:36:00,
2013-02-18 03:41:00,34.0,31.9,29.74,North,0,0.0,0.0,92,0.00,,,0.00,WUHU216HW,2013-02-18 11:41:00,
2013-02-18 03:46:00,34.0,31.9,29.74,North,0,0.0,0.0,92,0.00,,,0.00,WUHU216HW,2013-02-18 11:46:00,
2013-02-18 03:51:00,34.0,31.9,29.74,North,0,0.0,0.0,92,0.00,,,0.00,WUHU216HW,2013-02-18 11:51:00,
2013-02-18 03:56:00,34.0,31.9,29.73,North,0,0.0,0.0,92,0.00,,,0.00,WUHU216HW,2013-02-18 11:56:00,
2013-02-18 04:01:00,34.0,31.9,29.73,North,0,0.0,0.0,92,0.00,,,0.00,WUHU216HW,2013-02-18 12:01:00,
2013-02-18 04:06:00,34.2,32.0,29.73,North,0,0.0,0.0,92,0.00,,,0.00,WUHU216HW,2013-02-18 12:06:00,
2013-02-18 04:11:00,34.2,32.0,29.73,North,0,0.0,0.0,92,0.00,,,0.00,WUHU216HW,2013-02-18 12:11:00,
2013-02-18 04:16:00,34.2,32.0,29.73,North,0,0.0,0.0,92,0.00,,,0.00,WUHU216HW,2013-02-18 12:16:00,
2013-02-18 04:21:00,34.2,32.0,29.73,North,0,0.0,0.0,92,0.00,,,0.00,WUHU216HW,2013-02-18 12:21:00,
2013-02-18 04:26:00,34.2,32.0,29.73,North,0,0.0,0.0,92,0.00,,,0.00,WUHU216HW,2013-02-18 12:26:00,
2013-02-18 04:31:00,34.2,32.0,29.73,North,0,0.0,0.0,92,0.00,,,0.00,WUHU216HW,2013-02-18 12:31:00,
2013-02-18 04:36:00,34.2,32.0,29.72,North,0,0.0,0.0,92,0.00,,,0.00,WUHU216HW,2013-02-18 12:36:00,
2013-02-18 04:41:00,34.2,32.0,29.72,North,0,0.0,0.0,92,0.00,,,0.00,WUHU216HW,2013-02-18 12:41:00,
2013-02-18 04:46:00,34.2,32.0,29.72,North,0,0.0,0.0,92,0.00,,,0.00,WUHU216HW,2013-02-18 12:46:00,
2013-02-18 04:51:00,34.2,32.0,29.72,North,0,0.0,0.0,92,0.00,,,0.00,WUHU216HW,2013-02-18 12:51:00,
2013-02-18 04:56:00,34.2,32.0,29.72,North,0,0.0,0.0,92,0.00,,,0.00,WUHU216HW,2013-02-18 12:56:00,
2013-02-18 05:01:00,34.2,32.0,29.72,North,0,0.0,0.0,92,0.00,,,0.00,WUHU216HW,2013-02-18 13:01:00,
2013-02-18 05:06:00,34.0,31.9,29.72,North,0,0.0,0.0,92,0.00,,,0.00,WUHU216HW,2013-02-18 13:06:00,
2013-02-18 05:11:00,34.0,31.9,29.72,North,0,0.0,0.0,92,0.00,,,0.00,WUHU216HW,2013-02-18 13:11:00,
2013-02-18 05:16:00,33.8,31.7,29.71,North,0,0.0,0.0,92,0.00,,,0.00,WUHU216HW,2013-02-18 13:16:00,
2013-02-18 05:21:00,33.8,31.7,29.72,North,0,0.0,0.0,92,0.00,,,0.00,WUHU216HW,2013-02-18 13:21:00,
2013-02-18 05:26:00,33.8,31.7,29.71,North,0,0.0,0.0,92,0.00,,,0.00,WUHU216HW,2013-02-18 13:26:00,
2013-02-18 05:31:00,33.8,31.7,29.71,North,0,0.0,0.0,92,0.00,,,0.00,WUHU216HW,2013-02-18 13:31:00,
2013-02-18 05:37:00,33.7,31.5,29.71,North,0,0.0,0.0,92,0.00,,,0.00,WUHU216HW,2013-02-18 13:37:00,
2013-02-18 05:42:00,33.5,31.3,29.71,North,0,0.0,0.0,92,0.00,,,0.00,WUHU216HW,2013-02-18 13:42:00,
2013-02-18 05:47:00,33.5,31.3,29.70,North,0,0.0,0.0,92,0.00,,,0.00,WUHU216HW,2013-02-18 13:47:00,
2013-02-18 05:52:00,33.3,31.1,29.71,North,0,0.0,0.0,92,0.00,,,0.00,WUHU216HW,2013-02-18 13:52:00,
2013-02-18 05:57:00,33.3,31.1,29.70,North,0,0.0,0.0,92,0.00,,,0.00,WUHU216HW,2013-02-18 13:57:00,
2013-02-18 06:02:00,33.5,31.3,29.70,North,0,0.0,0.0,92,0.00,,,0.00,WUHU216HW,2013-02-18 14:02:00,
2013-02-18 06:07:00,33.5,31.3,29.70,North,0,0.0,0.0,92,0.00,,,0.00,WUHU216HW,2013-02-18 14:07:00,
2013-02-18 06:12:00,33.5,31.3,29.70,North,0,0.0,0.0,92,0.00,,,0.00,WUHU216HW,2013-02-18 14:12:00,
2013-02-18 06:17:00,33.3,31.1,29.70,North,0,0.0,0.0,92,0.00,,,0.00,WUHU216HW,2013-02-18 14:17:00,
2013-02-18 06:22:00,33.3,31.1,29.69,North,0,0.0,0.0,92,0.00,,,0.00,WUHU216HW,2013-02-18 14:22:00,
2013-02-18 06:27:00,33.3,31.1,29.69,North,0,0.0,0.0,92,0.00,,,0.00,WUHU216HW,2013-02-18 14:27:00,
2013-02-18 06:32:00,33.1,31.1,29.69,North,0,0.0,0.0,92,0.00,,,0.00,WUHU216HW,2013-02-18 14:32:00,
2013-02-18 06:37:00,33.1,31.1,29.69,North,0,0.0,0.0,92,0.00,,,0.00,WUHU216HW,2013-02-18 14:37:00,
2013-02-18 06:42:00,32.9,30.9,29.69,North,0,0.0,0.0,92,0.00,,,0.00,WUHU216HW,2013-02-18 14:42:00,
2013-02-18 06:47:00,32.9,30.9,29.69,North,0,0.0,0.0,92,0.00,,,0.00,WUHU216HW,2013-02-18 14:47:00,
2013-02-18 06:52:00,32.9,30.9,29.69,North,0,0.0,0.0,92,0.00,,,0.00,WUHU216HW,2013-02-18 14:52:00,
2013-02-18 06:57:00,32.8,30.7,29.69,North,0,0.0,0.0,92,0.00,,,0.00,WUHU216HW,2013-02-18 14:57:00,
2013-02-18 07:02:00,32.8,30.7,29.69,North,0,0.0,0.0,92,0.00,,,0.00,WUHU216HW,2013-02-18 15:02:00,
2013-02-18 07:07:00,32.8,30.7,29.69,North,0,0.0,0.0,92,0.00,,,0.00,WUHU216HW,2013-02-18 15:07:00,
2013-02-18 07:12:00,32.8,30.7,29.69,North,0,0.0,0.0,92,0.00,,,0.00,WUHU216HW,2013-02-18 15:12:00,
2013-02-18 07:17:00,32.8,30.7,29.69,North,0,0.0,0.0,92,0.00,,,0.00,WUHU216HW,2013-02-18 15:17:00,
2013-02-18 07:22:00,32.8,30.7,29.69,North,0,0.0,0.0,92,0.00,,,0.00,WUHU216HW,2013-02-18 15:22:00,
2013-02-18 07:27:00,33.1,31.3,29.69,North,0,0.0,0.0,93,0.00,,,0.00,WUHU216HW,2013-02-18 15:27:00,
2013-02-18 07:32:00,33.1,31.3,29.69,North,0,0.0,0.0,93,0.00,,,0.00,WUHU216HW,2013-02-18 15:32:00,
2013-02-18 07:37:00,33.3,31.4,29.69,North,0,0.0,0.0,93,0.00,,,0.00,WUHU216HW,2013-02-18 15:37:00,
2013-02-18 07:42:00,33.3,31.4,29.69,North,0,0.0,0.0,93,0.00,,,0.00,WUHU216HW,2013-02-18 15:42:00,
2013-02-18 07:47:00,33.5,31.6,29.69,North,0,0.0,0.0,93,0.00,,,0.00,WUHU216HW,2013-02-18 15:47:00,
2013-02-18 07:52:00,33.5,31.6,29.69,North,0,0.0,0.0,93,0.00,,,0.00,WUHU216HW,2013-02-18 15:52:00,
2013-02-18 07:57:00,33.5,31.3,29.69,North,0,0.0,0.0,92,0.00,,,0.00,WUHU216HW,2013-02-18 15:57:00,
2013-02-18 08:02:00,33.7,31.8,29.70,North,0,0.0,0.0,93,0.00,,,0.00,WUHU216HW,2013-02-18 16:02:00,
2013-02-18 08:07:00,33.8,32.0,29.70,North,0,0.0,0.0,93,0.00,,,0.00,WUHU216HW,2013-02-18 16:07:00,
2013-02-18 08:12:00,34.0,32.1,29.69,North,0,0.0,0.0,93,0.00,,,0.00,WUHU216HW,2013-02-18 16:12:00,
2013-02-18 08:17:00,34.2,32.3,29.69,North,0,0.0,0.0,93,0.00,,,0.00,WUHU216HW,2013-02-18 16:17:00,
2013-02-18 08:22:00,34.4,32.5,29.69,North,0,0.0,0.0,93,0.00,,,0.00,WUHU216HW,2013-02-18 16:22:00,
2013-02-18 08:27:00,34.4,32.5,29.69,North,0,0.0,0.0,93,0.00,,,0.00,WUHU216HW,2013-02-18 16:27:00,
2013-02-18 08:32:00,34.6,32.7,29.69,North,0,0.0,0.0,93,0.00,,,0.00,WUHU216HW,2013-02-18 16:32:00,
2013-02-18 08:37:00,34.7,32.9,29.69,North,0,0.0,0.0,93,0.00,,,0.00,WUHU216HW,2013-02-18 16:37:00,
2013-02-18 08:42:00,34.9,33.0,29.69,North,0,0.0,0.0,93,0.00,,,0.00,WUHU216HW,2013-02-18 16:42:00,
2013-02-18 08:47:00,35.1,33.2,29.69,North,0,0.0,0.0,93,0.00,,,0.00,WUHU216HW,2013-02-18 16:47:00,
2013-02-18 08:52:00,35.3,33.4,29.68,North,0,0.0,0.0,93,0.00,,,0.00,WUHU216HW,2013-02-18 16:52:00,
2013-02-18 08:57:00,35.5,33.6,29.69,North,0,0.0,0.0,93,0.00,,,0.00,WUHU216HW,2013-02-18 16:57:00,
2013-02-18 09:02:00,35.6,33.8,29.69,North,0,0.0,0.0,93,0.00,,,0.00,WUHU216HW,2013-02-18 17:02:00,
2013-02-18 09:07:00,36.0,34.1,29.68,North,0,0.0,0.0,93,0.00,,,0.00,WUHU216HW,2013-02-18 17:07:00,
2013-02-18 09:12:00,36.2,34.3,29.68,North,0,0.0,0.0,93,0.00,,,0.00,WUHU216HW,2013-02-18 17:12:00,
2013-02-18 09:17:00,36.5,34.7,29.68,North,0,0.0,0.0,93,0.00,,,0.00,WUHU216HW,2013-02-18 17:17:00,
2013-02-18 09:22:00,36.9,34.7,29.67,North,0,0.0,0.0,92,0.00,,,0.00,WUHU216HW,2013-02-18 17:22:00,
2013-02-18 09:27:00,37.4,35.3,29.67,North,0,0.0,0.0,92,0.00,,,0.00,WUHU216HW,2013-02-18 17:27:00,
2013-02-18 09:32:00,37.8,35.6,29.67,North,0,0.0,0.0,92,0.00,,,0.00,WUHU216HW,2013-02-18 17:32:00,
2013-02-18 09:38:00,38.0,35.8,29.67,North,0,0.0,0.0,92,0.00,,,0.00,WUHU216HW,2013-02-18 17:38:00,
2013-02-18 09:43:00,38.5,36.1,29.67,North,0,0.0,0.0,91,0.00,,,0.00,WUHU216HW,2013-02-18 17:43:00,
2013-02-18 09:48:00,38.9,36.5,29.67,North,0,0.0,0.0,91,0.00,,,0.00,WUHU216HW,2013-02-18 17:48:00,
2013-02-18 09:53:00,39.2,36.8,29.67,North,0,0.0,0.0,91,0.00,,,0.00,WUHU216HW,2013-02-18 17:53:00,
2013-02-18 09:58:00,39.6,37.2,29.67,North,0,0.0,0.0,91,0.00,,,0.00,WUHU216HW,2013-02-18 17:58:00,
2013-02-18 10:03:00,40.0,37.3,29.66,North,0,0.0,0.0,90,0.00,,,0.00,WUHU216HW,2013-02-18 18:03:00,
2013-02-18 10:08:00,40.1,37.4,29.66,North,0,0.0,0.0,90,0.00,,,0.00,WUHU216HW,2013-02-18 18:08:00,
2013-02-18 10:13:00,40.1,37.2,29.66,North,0,0.0,0.0,89,0.00,,,0.00,WUHU216HW,2013-02-18 18:13:00,
2013-02-18 10:18:00,40.3,37.4,29.66,North,0,0.0,0.0,89,0.00,,,0.00,WUHU216HW,2013-02-18 18:18:00,
2013-02-18 10:23:00,40.3,37.0,29.66,North,0,0.0,0.0,88,0.00,,,0.00,WUHU216HW,2013-02-18 18:23:00,
2013-02-18 10:28:00,40.5,37.2,29.66,North,0,0.0,0.0,88,0.00,,,0.00,WUHU216HW,2013-02-18 18:28:00,
2013-02-18 10:33:00,40.7,37.4,29.66,North,0,0.0,0.0,88,0.00,,,0.00,WUHU216HW,2013-02-18 18:33:00,
2013-02-18 10:38:00,40.7,37.4,29.66,North,0,0.0,0.0,88,0.00,,,0.00,WUHU216HW,2013-02-18 18:38:00,
2013-02-18 10:43:00,41.0,37.7,29.66,North,0,0.0,0.0,88,0.00,,,0.00,WUHU216HW,2013-02-18 18:43:00,
2013-02-18 10:48:00,41.4,37.8,29.66,North,0,0.0,0.0,87,0.00,,,0.00,WUHU216HW,2013-02-18 18:48:00,
2013-02-18 10:53:00,41.6,38.0,29.66,North,0,0.0,0.0,87,0.00,,,0.00,WUHU216HW,2013-02-18 18:53:00,
2013-02-18 10:58:00,41.9,38.4,29.66,North,0,0.0,0.0,87,0.00,,,0.00,WUHU216HW,2013-02-18 18:58:00,
2013-02-18 11:03:00,42.1,38.2,29.65,North,0,0.0,0.0,86,0.00,,,0.00,WUHU216HW,2013-02-18 19:03:00,
2013-02-18 11:08:00,42.3,38.1,29.66,North,0,0.0,0.0,85,0.00,,,0.00,WUHU216HW,2013-02-18 19:08:00,
2013-02-18 11:13:00,42.3,38.1,29.66,North,0,0.0,0.0,85,0.00,,,0.00,WUHU216HW,2013-02-18 19:13:00,
2013-02-18 11:18:00,42.3,38.1,29.65,North,0,0.0,0.0,85,0.00,,,0.00,WUHU216HW,2013-02-18 19:18:00,
2013-02-18 11:23:00,42.7,38.4,29.65,North,0,0.0,0.0,85,0.00,,,0.00,WUHU216HW,2013-02-18 19:23:00,
2013-02-18 11:28:00,42.8,38.6,29.65,North,0,0.0,0.0,85,0.00,,,0.00,WUHU216HW,2013-02-18 19:28:00,
2013-02-18 11:33:00,43.0,38.8,29.65,North,0,0.0,0.0,85,0.00,,,0.00,WUHU216HW,2013-02-18 19:33:00,
2013-02-18 11:38:00,43.4,39.4,29.65,North,0,0.0,0.0,86,0.00,,,0.00,WUHU216HW,2013-02-18 19:38:00,
2013-02-18 11:43:00,43.7,39.8,29.64,North,0,0.0,0.0,86,0.00,,,0.00,WUHU216HW,2013-02-18 19:43:00,
2013-02-18 11:48:00,43.9,39.7,29.64,North,0,0.0,0.0,85,0.00,,,0.00,WUHU216HW,2013-02-18 19:48:00,
2013-02-18 11:53:00,44.5,40.2,29.64,North,0,0.0,0.0,85,0.00,,,0.00,WUHU216HW,2013-02-18 19:53:00,
2013-02-18 11:58:00,44.8,40.6,29.64,North,0,0.0,0.0,85,0.00,,,0.00,WUHU216HW,2013-02-18 19:58:00,
2013-02-18 12:03:00,45.0,40.5,29.63,North,0,0.0,0.0,84,0.00,,,0.00,WUHU216HW,2013-02-18 20:03:00,
2013-02-18 12:08:00,45.2,40.7,29.63,North,0,0.0,0.0,84,0.00,,,0.00,WUHU216HW,2013-02-18 20:08:00,
2013-02-18 12:13:00,45.5,41.1,29.63,North,0,0.0,0.0,84,0.00,,,0.00,WUHU216HW,2013-02-18 20:13:00,
2013-02-18 12:18:00,45.7,40.9,29.63,North,0,0.0,0.0,83,0.00,,,0.00,WUHU216HW,2013-02-18 20:18:00,
2013-02-18 12:23:00,46.1,41.0,29.62,North,0,0.0,0.0,82,0.00,,,0.00,WUHU216HW,2013-02-18 20:23:00,
2013-02-18 12:28:00,46.3,41.1,29.62,North,0,0.0,0.0,82,0.00,,,0.00,WUHU216HW,2013-02-18 20:28:00,
2013-02-18 12:33:00,46.4,41.3,29.62,North,0,0.0,0.0,82,0.00,,,0.00,WUHU216HW,2013-02-18 20:33:00,
2013-02-18 12:38:00,46.6,41.1,29.62,North,0,0.0,0.0,81,0.00,,,0.00,WUHU216HW,2013-02-18 20:38:00,
2013-02-18 12:43:00,46.8,41.3,29.62,North,0,0.0,0.0,81,0.00,,,0.00,WUHU216HW,2013-02-18 20:43:00,
2013-02-18 12:48:00,46.8,41.1,29.61,North,0,0.0,0.0,80,0.00,,,0.00,WUHU216HW,2013-02-18 20:48:00,
2013-02-18 12:53:00,47.0,41.1,29.61,North,0,0.0,0.0,80,0.00,,,0.00,WUHU216HW,2013-02-18 20:53:00,
2013-02-18 12:58:00,47.2,41.3,29.61,North,0,0.0,0.0,80,0.00,,,0.00,WUHU216HW,2013-02-18 20:58:00,
2013-02-18 13:03:00,47.2,41.3,29.61,North,0,0.0,0.0,80,0.00,,,0.00,WUHU216HW,2013-02-18 21:03:00,
2013-02-18 13:08:00,47.3,41.5,29.61,North,0,0.0,0.0,80,0.00,,,0.00,WUHU216HW,2013-02-18 21:08:00,
2013-02-18 13:13:00,47.3,41.1,29.61,North,0,0.0,0.0,79,0.00,,,0.00,WUHU216HW,2013-02-18 21:13:00,
2013-02-18 13:18:00,47.5,41.7,29.61,North,0,0.0,0.0,80,0.00,,,0.00,WUHU216HW,2013-02-18 21:18:00,
2013-02-18 13:23:00,47.5,41.7,29.60,North,0,0.0,0.0,80,0.00,,,0.00,WUHU216HW,2013-02-18 21:23:00,
2013-02-18 13:28:00,47.7,41.5,29.60,North,0,0.0,0.0,79,0.00,,,0.00,WUHU216HW,2013-02-18 21:28:00,
2013-02-18 13:33:00,47.7,41.5,29.60,North,0,0.0,0.0,79,0.00,,,0.00,WUHU216HW,2013-02-18 21:33:00,
2013-02-18 13:38:00,47.9,41.3,29.60,North,0,0.0,0.0,78,0.00,,,0.00,WUHU216HW,2013-02-18 21:38:00,
2013-02-18 13:43:00,48.1,41.5,29.60,North,0,0.0,0.0,78,0.00,,,0.00,WUHU216HW,2013-02-18 21:43:00,
2013-02-18 13:48:00,48.2,41.6,29.60,North,0,0.0,0.0,78,0.00,,,0.00,WUHU216HW,2013-02-18 21:48:00,
2013-02-18 13:53:00,48.4,41.5,29.59,North,0,0.0,0.0,77,0.00,,,0.00,WUHU216HW,2013-02-18 21:53:00,
2013-02-18 13:58:00,48.6,41.7,29.59,North,0,0.0,0.0,77,0.00,,,0.00,WUHU216HW,2013-02-18 21:58:00,
2013-02-18 14:03:00,48.6,41.3,29.59,North,0,0.0,0.0,76,0.00,,,0.00,WUHU216HW,2013-02-18 22:03:00,
2013-02-18 14:08:00,48.4,40.8,29.59,North,0,0.0,0.0,75,0.00,,,0.00,WUHU216HW,2013-02-18 22:08:00,
2013-02-18 14:13:00,48.4,40.8,29.59,North,0,0.0,0.0,75,0.00,,,0.00,WUHU216HW,2013-02-18 22:13:00,
2013-02-18 14:18:00,48.2,41.0,29.59,North,0,0.0,0.0,76,0.00,,,0.00,WUHU216HW,2013-02-18 22:18:00,
2013-02-18 14:23:00,48.4,40.8,29.59,North,0,0.0,0.0,75,0.00,,,0.00,WUHU216HW,2013-02-18 22:23:00,
2013-02-18 14:29:00,48.4,40.8,29.59,North,0,0.0,0.0,75,0.00,,,0.00,WUHU216HW,2013-02-18 22:29:00,
2013-02-18 14:34:00,48.6,41.0,29.58,North,0,0.0,0.0,75,0.00,,,0.00,WUHU216HW,2013-02-18 22:34:00,
2013-02-18 14:39:00,48.6,41.0,29.58,North,0,0.0,0.0,75,0.00,,,0.00,WUHU216HW,2013-02-18 22:39:00,
2013-02-18 14:44:00,48.6,41.0,29.58,North,0,0.0,0.0,75,0.00,,,0.00,WUHU216HW,2013-02-18 22:44:00,
2013-02-18 14:49:00,48.4,40.8,29.58,North,0,0.0,0.0,75,0.00,,,0.00,WUHU216HW,2013-02-18 22:49:00,
2013-02-18 14:54:00,48.2,40.6,29.58,North,0,0.0,0.0,75,0.00,,,0.00,WUHU216HW,2013-02-18 22:54:00,
2013-02-18 14:59:00,48.1,40.4,29.57,North,0,0.0,0.0,75,0.00,,,0.00,WUHU216HW,2013-02-18 22:59:00,
2013-02-18 15:04:00,47.9,40.2,29.57,North,0,0.0,0.0,75,0.00,,,0.00,WUHU216HW,2013-02-18 23:04:00,
2013-02-18 15:09:00,47.9,40.2,29.57,North,0,0.0,0.0,75,0.00,,,0.00,WUHU216HW,2013-02-18 23:09:00,
2013-02-18 15:14:00,47.7,40.2,29.57,North,0,0.0,0.0,75,0.00,,,0.00,WUHU216HW,2013-02-18 23:14:00,
2013-02-18 15:19:00,47.9,40.2,29.57,North,0,0.0,0.0,75,0.00,,,0.00,WUHU216HW,2013-02-18 23:19:00,
2013-02-18 15:24:00,47.9,40.2,29.57,North,0,0.0,0.0,75,0.00,,,0.00,WUHU216HW,2013-02-18 23:24:00,
2013-02-18 15:29:00,47.7,40.2,29.57,North,0,0.0,0.0,75,0.00,,,0.00,WUHU216HW,2013-02-18 23:29:00,
2013-02-18 15:34:00,47.7,40.2,29.57,North,0,0.0,0.0,75,0.00,,,0.00,WUHU216HW,2013-02-18 23:34:00,
2013-02-18 15:39:00,47.7,40.4,29.56,North,0,0.0,0.0,76,0.00,,,0.00,WUHU216HW,2013-02-18 23:39:00,
2013-02-18 15:44:00,47.5,40.3,29.56,North,0,0.0,0.0,76,0.00,,,0.00,WUHU216HW,2013-02-18 23:44:00,
2013-02-18 15:49:00,47.5,40.3,29.56,North,0,0.0,0.0,76,0.00,,,0.00,WUHU216HW,2013-02-18 23:49:00,
2013-02-18 15:54:00,47.5,40.3,29.56,North,0,0.0,0.0,76,0.00,,,0.00,WUHU216HW,2013-02-18 23:54:00,
2013-02-18 15:59:00,47.5,40.3,29.55,North,0,0.0,0.0,76,0.00,,,0.00,WUHU216HW,2013-02-18 23:59:00,
2013-02-18 16:04:00,47.3,40.2,29.55,North,0,0.0,0.0,76,0.00,,,0.00,WUHU216HW,2013-02-19 00:04:00,
2013-02-18 16:09:00,47.2,40.0,29.55,North,0,0.0,0.0,76,0.00,,,0.00,WUHU216HW,2013-02-19 00:09:00,
2013-02-18 16:14:00,47.2,40.0,29.55,North,0,0.0,0.0,76,0.00,,,0.00,WUHU216HW,2013-02-19 00:14:00,
2013-02-18 16:19:00,47.2,39.6,29.55,North,0,0.0,0.0,75,0.00,,,0.00,WUHU216HW,2013-02-19 00:19:00,
2013-02-18 16:24:00,47.2,39.6,29.55,North,0,0.0,0.0,75,0.00,,,0.00,WUHU216HW,2013-02-19 00:24:00,
2013-02-18 16:29:00,47.0,39.4,29.55,North,0,0.0,0.0,75,0.00,,,0.00,WUHU216HW,2013-02-19 00:29:00,
2013-02-18 16:34:00,47.0,39.4,29.54,North,0,0.0,0.0,75,0.00,,,0.00,WUHU216HW,2013-02-19 00:34:00,
2013-02-18 16:39:00,47.0,39.4,29.54,North,0,0.0,0.0,75,0.00,,,0.00,WUHU216HW,2013-02-19 00:39:00,
2013-02-18 16:44:00,46.8,39.3,29.54,North,0,0.0,0.0,75,0.00,,,0.00,WUHU216HW,2013-02-19 00:44:00,
2013-02-18 16:49:00,46.6,39.2,29.54,North,0,0.0,0.0,75,0.00,,,0.00,WUHU216HW,2013-02-19 00:49:00,
2013-02-18 16:54:00,46.4,39.0,29.54,North,0,0.0,0.0,75,0.00,,,0.00,WUHU216HW,2013-02-19 00:54:00,
2013-02-18 16:59:00,46.4,39.3,29.54,North,0,0.0,0.0,76,0.00,,,0.00,WUHU216HW,2013-02-19 00:59:00,
2013-02-18 17:04:00,46.1,39.0,29.54,North,0,0.0,0.0,76,0.00,,,0.00,WUHU216HW,2013-02-19 01:04:00,
2013-02-18 17:09:00,45.9,39.2,29.54,North,0,0.0,0.0,77,0.00,,,0.00,WUHU216HW,2013-02-19 01:09:00,
2013-02-18 17:14:00,45.9,39.2,29.53,North,0,0.0,0.0,77,0.00,,,0.00,WUHU216HW,2013-02-19 01:14:00,
2013-02-18 17:19:00,45.7,39.0,29.53,North,0,0.0,0.0,77,0.00,,,0.00,WUHU216HW,2013-02-19 01:19:00,
2013-02-18 17:24:00,45.7,39.2,29.53,North,0,0.0,0.0,78,0.00,,,0.00,WUHU216HW,2013-02-19 01:24:00,
2013-02-18 17:29:00,45.5,39.1,29.53,North,0,0.0,0.0,78,0.00,,,0.00,WUHU216HW,2013-02-19 01:29:00,
2013-02-18 17:34:00,45.4,38.6,29.52,North,0,0.0,0.0,77,0.00,,,0.00,WUHU216HW,2013-02-19 01:34:00,
2013-02-18 17:39:00,45.2,38.4,29.52,North,0,0.0,0.0,77,0.00,,,0.00,WUHU216HW,2013-02-19 01:39:00,
2013-02-18 17:44:00,45.0,38.3,29.52,North,0,0.0,0.0,77,0.00,,,0.00,WUHU216HW,2013-02-19 01:44:00,
2013-02-18 17:49:00,45.0,38.3,29.52,North,0,0.0,0.0,77,0.00,,,0.00,WUHU216HW,2013-02-19 01:49:00,
2013-02-18 17:54:00,44.8,38.3,29.52,North,0,0.0,0.0,78,0.00,,,0.00,WUHU216HW,2013-02-19 01:54:00,
2013-02-18 17:59:00,44.6,38.2,29.52,North,0,0.0,0.0,78,0.00,,,0.00,WUHU216HW,2013-02-19 01:59:00,
2013-02-18 18:04:00,44.5,38.0,29.52,North,0,0.0,0.0,78,0.00,,,0.00,WUHU216HW,2013-02-19 02:04:00,
2013-02-18 18:09:00,44.3,38.2,29.52,North,0,0.0,0.0,79,0.00,,,0.00,WUHU216HW,2013-02-19 02:09:00,
2013-02-18 18:14:00,44.3,38.2,29.52,North,0,0.0,0.0,79,0.00,,,0.00,WUHU216HW,2013-02-19 02:14:00,
2013-02-18 18:19:00,44.1,38.0,29.51,North,0,0.0,0.0,79,0.00,,,0.00,WUHU216HW,2013-02-19 02:19:00,
2013-02-18 18:24:00,43.9,37.8,29.51,North,0,0.0,0.0,79,0.00,,,0.00,WUHU216HW,2013-02-19 02:24:00,
2013-02-18 18:29:00,43.7,37.6,29.51,North,0,0.0,0.0,79,0.00,,,0.00,WUHU216HW,2013-02-19 02:29:00,
2013-02-18 18:34:00,43.7,37.6,29.51,North,0,0.0,0.0,79,0.00,,,0.00,WUHU216HW,2013-02-19 02:34:00,
2013-02-18 18:39:00,43.6,37.8,29.51,North,0,0.0,0.0,80,0.00,,,0.00,WUHU216HW,2013-02-19 02:39:00,
2013-02-18 18:44:00,43.6,37.8,29.51,North,0,0.0,0.0,80,0.00,,,0.00,WUHU216HW,2013-02-19 02:44:00,
2013-02-18 18:50:00,43.6,37.8,29.51,North,0,0.0,0.0,80,0.00,,,0.00,WUHU216HW,2013-02-19 02:50:00,
2013-02-18 18:55:00,43.4,37.6,29.51,North,0,0.0,0.0,80,0.00,,,0.00,WUHU216HW,2013-02-19 02:55:00,
2013-02-18 19:00:00,43.4,37.6,29.51,North,0,0.0,0.0,80,0.00,,,0.00,WUHU216HW,2013-02-19 03:00:00,
2013-02-18 19:05:00,43.4,37.6,29.51,North,0,0.0,0.0,80,0.00,,,0.00,WUHU216HW,2013-02-19 03:05:00,
2013-02-18 19:10:00,43.2,37.4,29.51,North,0,0.0,0.0,80,0.00,,,0.00,WUHU216HW,2013-02-19 03:10:00,
2013-02-18 19:15:00,43.0,37.3,29.51,North,0,0.0,0.0,80,0.00,,,0.00,WUHU216HW,2013-02-19 03:15:00,
2013-02-18 19:20:00,43.0,37.3,29.50,North,0,0.0,0.0,80,0.00,,,0.00,WUHU216HW,2013-02-19 03:20:00,
2013-02-18 19:25:00,43.0,37.5,29.50,North,0,0.0,0.0,81,0.00,,,0.00,WUHU216HW,2013-02-19 03:25:00,
2013-02-18 19:30:00,42.8,37.4,29.50,North,0,0.0,0.0,81,0.00,,,0.00,WUHU216HW,2013-02-19 03:30:00,
2013-02-18 19:35:00,42.8,37.4,29.50,North,0,0.0,0.0,81,0.00,,,0.00,WUHU216HW,2013-02-19 03:35:00,
2013-02-18 19:40:00,42.8,37.4,29.50,North,0,0.0,0.0,81,0.00,,,0.00,WUHU216HW,2013-02-19 03:40:00,
2013-02-18 19:45:00,42.8,37.4,29.50,North,0,0.0,0.0,81,0.00,,,0.00,WUHU216HW,2013-02-19 03:45:00,
2013-02-18 19:50:00,42.7,37.2,29.50,North,0,0.0,0.0,81,0.00,,,0.00,WUHU216HW,2013-02-19 03:50:00,
2013-02-18 19:55:00,42.7,37.2,29.50,North,0,0.0,0.0,81,0.00,,,0.00,WUHU216HW,2013-02-19 03:55:00,
2013-02-18 20:00:00,42.7,37.2,29.50,North,0,0.0,0.0,81,0.00,,,0.00,WUHU216HW,2013-02-19 04:00:00,
2013-02-18 20:05:00,42.5,37.0,29.50,North,0,0.0,0.0,81,0.00,,,0.00,WUHU216HW,2013-02-19 04:05:00,
2013-02-18 20:10:00,42.5,37.0,29.49,North,0,0.0,0.0,81,0.00,,,0.00,WUHU216HW,2013-02-19 04:10:00,
2013-02-18 20:15:00,42.3,36.5,29.49,North,0,0.0,0.0,80,0.00,,,0.00,WUHU216HW,2013-02-19 04:15:00,
2013-02-18 20:20:00,42.3,36.5,29.49,North,0,0.0,0.0,80,0.00,,,0.00,WUHU216HW,2013-02-19 04:20:00,
2013-02-18 20:25:00,42.1,36.6,29.49,North,0,0.0,0.0,81,0.00,,,0.00,WUHU216HW,2013-02-19 04:25:00,
2013-02-18 20:30:00,42.1,36.6,29.49,North,0,0.0,0.0,81,0.00,,,0.00,WUHU216HW,2013-02-19 04:30:00,
2013-02-18 20:35:00,42.1,36.6,29.49,North,0,0.0,0.0,81,0.00,,,0.00,WUHU216HW,2013-02-19 04:35:00,
2013-02-18 20:40:00,42.1,36.6,29.49,North,0,0.0,0.0,81,0.00,,,0.00,WUHU216HW,2013-02-19 04:40:00,
2013-02-18 20:45:00,42.1,36.6,29.49,North,0,0.0,0.0,81,0.00,,,0.00,WUHU216HW,2013-02-19 04:45:00,
2013-02-18 20:50:00,42.1,36.6,29.49,North,0,0.0,0.0,81,0.00,,,0.00,WUHU216HW,2013-02-19 04:50:00,
2013-02-18 20:55:00,42.1,36.6,29.49,North,0,0.0,0.0,81,0.00,,,0.00,WUHU216HW,2013-02-19 04:55:00,
2013-02-18 21:00:00,42.1,36.6,29.48,North,0,0.0,0.0,81,0.00,,,0.00,WUHU216HW,2013-02-19 05:00:00,
2013-02-18 21:05:00,41.9,36.5,29.48,North,0,0.0,0.0,81,0.00,,,0.00,WUHU216HW,2013-02-19 05:05:00,
2013-02-18 21:10:00,41.9,36.5,29.48,North,0,0.0,0.0,81,0.00,,,0.00,WUHU216HW,2013-02-19 05:10:00,
2013-02-18 21:15:00,41.9,36.5,29.48,North,0,0.0,0.0,81,0.00,,,0.00,WUHU216HW,2013-02-19 05:15:00,
2013-02-18 21:20:00,41.8,36.3,29.48,North,0,0.0,0.0,81,0.00,,,0.00,WUHU216HW,2013-02-19 05:20:00,
2013-02-18 21:25:00,41.8,36.3,29.48,North,0,0.0,0.0,81,0.00,,,0.00,WUHU216HW,2013-02-19 05:25:00,
2013-02-18 21:30:00,41.8,36.3,29.48,North,0,0.0,0.0,81,0.00,,,0.00,WUHU216HW,2013-02-19 05:30:00,
2013-02-18 21:35:00,41.6,36.1,29.48,North,0,0.0,0.0,81,0.00,,,0.00,WUHU216HW,2013-02-19 05:35:00,
2013-02-18 21:40:00,41.4,35.9,29.48,North,0,0.0,0.0,81,0.00,,,0.00,WUHU216HW,2013-02-19 05:40:00,
2013-02-18 21:45:00,41.4,35.9,29.48,North,0,0.0,0.0,81,0.00,,,0.00,WUHU216HW,2013-02-19 05:45:00,
2013-02-18 21:50:00,41.4,35.9,29.47,North,0,0.0,0.0,81,0.00,,,0.00,WUHU216HW,2013-02-19 05:50:00,
2013-02-18 21:55:00,41.2,35.7,29.47,North,0,0.0,0.0,81,0.00,,,0.00,WUHU216HW,2013-02-19 05:55:00,
2013-02-18 22:00:00,41.0,35.6,29.47,North,0,0.0,0.0,81,0.00,,,0.00,WUHU216HW,2013-02-19 06:00:00,
2013-02-18 22:05:00,41.0,35.6,29.47,North,0,0.0,0.0,81,0.00,,,0.00,WUHU216HW,2013-02-19 06:05:00,
2013-02-18 22:10:00,41.0,35.6,29.47,North,0,0.0,0.0,81,0.00,,,0.00,WUHU216HW,2013-02-19 06:10:00,
2013-02-18 22:15:00,41.0,35.6,29.47,North,0,0.0,0.0,81,0.00,,,0.00,WUHU216HW,2013-02-19 06:15:00,
2013-02-18 22:20:00,41.0,35.6,29.47,North,0,0.0,0.0,81,0.00,,,0.00,WUHU216HW,2013-02-19 06:20:00,
2013-02-18 22:25:00,41.0,35.6,29.47,North,0,0.0,0.0,81,0.00,,,0.00,WUHU216HW,2013-02-19 06:25:00,
2013-02-18 22:30:00,41.0,35.6,29.47,North,0,0.0,0.0,81,0.00,,,0.00,WUHU216HW,2013-02-19 06:30:00,
2013-02-18 22:35:00,41.0,35.6,29.47,North,0,0.0,0.0,81,0.00,,,0.00,WUHU216HW,2013-02-19 06:35:00,
2013-02-18 22:40:00,41.0,35.6,29.47,North,0,0.0,0.0,81,0.00,,,0.00,WUHU216HW,2013-02-19 06:40:00,
2013-02-18 22:45:00,40.9,35.7,29.47,North,0,0.0,0.0,82,0.00,,,0.00,WUHU216HW,2013-02-19 06:45:00,
2013-02-18 22:50:00,40.9,35.7,29.46,North,0,0.0,0.0,82,0.00,,,0.00,WUHU216HW,2013-02-19 06:50:00,
2013-02-18 22:55:00,40.9,35.7,29.46,North,0,0.0,0.0,82,0.00,,,0.00,WUHU216HW,2013-02-19 06:55:00,
2013-02-18 23:00:00,40.7,35.6,29.46,North,0,0.0,0.0,82,0.00,,,0.00,WUHU216HW,2013-02-19 07:00:00,
2013-02-18 23:05:00,40.7,35.3,29.46,North,0,0.0,0.0,81,0.00,,,0.00,WUHU216HW,2013-02-19 07:05:00,
2013-02-18 23:10:00,40.7,35.6,29.46,North,0,0.0,0.0,82,0.00,,,0.00,WUHU216HW,2013-02-19 07:10:00,
2013-02-18 23:15:00,40.7,35.6,29.46,North,0,0.0,0.0,82,0.00,,,0.00,WUHU216HW,2013-02-19 07:15:00,
2013-02-18 23:20:00,40.7,35.6,29.46,North,0,0.0,0.0,82,0.00,,,0.00,WUHU216HW,2013-02-19 07:20:00,
2013-02-18 23:25:00,40.7,35.6,29.46,North,0,0.0,0.0,82,0.00,,,0.00,WUHU216HW,2013-02-19 07:25:00,
2013-02-18 23:30:00,40.5,35.4,29.46,North,0,0.0,0.0,82,0.00,,,0.00,WUHU216HW,2013-02-19 07:30:00,
2013-02-18 23:35:00,40.5,35.7,29.46,North,0,0.0,0.0,83,0.00,,,0.00,WUHU216HW,2013-02-19 07:35:00,
2013-02-18 23:40:00,40.5,35.4,29.45,North,0,0.0,0.0,82,0.00,,,0.00,WUHU216HW,2013-02-19 07:40:00,
2013-02-18 23:45:00,40.5,35.4,29.46,North,0,0.0,0.0,82,0.00,,,0.00,WUHU216HW,2013-02-19 07:45:00,
2013-02-18 23:50:00,40.5,35.4,29.46,North,0,0.0,0.0,82,0.00,,,0.00,WUHU216HW,2013-02-19 07:50:00,
2013-02-18 23:55:00,40.5,35.1,29.46,North,0,0.0,0.0,81,0.00,,,0.00,WUHU216HW,2013-02-19 07:55:00,